Baldwinsville, NY

10:04 AM EDT on September 03, 2015 (GMT -0400)
Giddings Crest | | Change Station
CLOSE
Current Station
Personal Weather Station
Location: Baldwinsville, NY
Elevation: 502 ft
Nearby Weather Stations

Elev 502 ft 43.18 °N, 76.35 °W | Updated 7 minutes ago

Mostly Cloudy
Mostly Cloudy
75.7 °F
Feels Like 77 °F
N
3.2
Wind Variable Wind from West

Today
High -- | Low -- °F
--% Chance of Precip.
Yesterday
High -- | Low -- °F
Precip. -- in
6:31 AM 7:37 PM
Waning Gibbous, 70% visible
Pressure 29.93 in
Visibility 5.0 miles
Clouds Overcast 600 ft
Heat Index 77 °F
Dew Point 69 °F
Humidity 80%
Rainfall 0.00 in
Snow Depth Not available.
UV 1 out of 12
Pollen 9.20 out of 12
Air Quality Not available.
Flu Activity Not available.
METAR KFZY 031354Z AUTO 29004KT 5SM HZ OVC006 24/22 A2993 RMK AO2 SLP134 T02440217
Pressure 29.93 in
Visibility 5.0 miles
Clouds Overcast 600 ft
Heat Index 77 °F
Dew Point 69 °F
Humidity 80%
Rainfall 0.00 in
Snow Depth Not available.
UV 1 out of 12
Pollen 9.20 out of 12
Air Quality Not available.
Flu Activity Not available.
METAR KFZY 031354Z AUTO 29004KT 5SM HZ OVC006 24/22 A2993 RMK AO2 SLP134 T02440217

10-Day Weather Forecast

×

Almanac

Astronomy

Sep. 03, 2015 Rise Set
Actual Time
Civil Twilight
Nautical Twilight
Astronomical Twilight
Moon
Length of Visible Light
Length of Day
Tomorrow will be .
, % of the Moon is Illuminated

Today's Extremes

State Highs State Lows

Community

WunderPhotos

Upload Photos

1,851,955 photos uploaded!

WunderBlogs® & News

Nearby

Air Quality

  Air Quality AQ Index Pollutant
Not available.

Snow Depth

Station Depth Elevation

Earthquake Activity

City Distance Mag. Time & Date
Minimum magnitude displayed is 2.5.

Coastal Water Temperatures

Place Temperature

Stations

Nearby Weather Stations

Station Location Temp. Windchill Dew Point Humidity Wind Precip. Elev Updated Type